createdAt,value
2023-03-06T00:01:06.776Z,7.35
2023-03-06T00:03:33.782Z,6.93
2023-03-06T00:06:00.329Z,7.63
2023-03-06T00:08:28.171Z,6.55
2023-03-06T00:10:56.090Z,6.45
2023-03-06T00:13:22.582Z,9.57
2023-03-06T00:15:49.174Z,7.28
2023-03-06T00:18:15.680Z,7.35
2023-03-06T00:20:43.343Z,7.28
2023-03-06T00:23:10.280Z,5.90
2023-03-06T00:25:38.583Z,5.38
2023-03-06T00:28:05.806Z,7.70
2023-03-06T00:30:32.530Z,5.97
2023-03-06T00:32:58.956Z,8.90
2023-03-06T00:35:25.361Z,5.78
2023-03-06T00:37:51.798Z,8.85
2023-03-06T00:40:19.692Z,7.90
2023-03-06T00:42:46.835Z,6.93
2023-03-06T00:45:14.230Z,7.18
2023-03-06T00:47:41.213Z,7.85
2023-03-06T00:50:08.236Z,8.25
2023-03-06T00:52:34.810Z,5.38
2023-03-06T00:55:01.209Z,8.23
2023-03-06T00:57:27.668Z,6.13
2023-03-06T00:59:54.115Z,7.60
2023-03-06T01:02:20.681Z,7.43
2023-03-06T01:04:47.095Z,6.40
2023-03-06T01:07:13.504Z,7.93
2023-03-06T01:09:39.921Z,7.93
2023-03-06T01:12:06.518Z,5.93
2023-03-06T01:14:32.993Z,8.18
2023-03-06T01:16:59.356Z,9.20
2023-03-06T01:19:25.796Z,6.97
2023-03-06T01:21:52.184Z,7.20
2023-03-06T01:24:18.602Z,8.90
2023-03-06T01:26:44.969Z,8.45
2023-03-06T01:29:11.514Z,9.05
2023-03-06T01:31:38.051Z,10.60
2023-03-06T01:34:04.463Z,10.07
2023-03-06T01:36:30.887Z,7.13
2023-03-06T01:38:57.254Z,8.20
2023-03-06T01:41:23.734Z,8.45
2023-03-06T01:43:50.482Z,8.93
2023-03-06T01:46:28.769Z,5.68
2023-03-06T01:49:07.866Z,9.90
2023-03-06T01:51:45.667Z,8.18
2023-03-06T01:54:16.205Z,7.88
2023-03-06T01:56:44.754Z,9.10
2023-03-06T01:59:11.170Z,8.07
2023-03-06T02:01:39.806Z,8.50
2023-03-06T02:04:06.679Z,10.18
2023-03-06T02:06:36.340Z,6.85
2023-03-06T02:09:04.651Z,9.63
2023-03-06T02:11:31.154Z,9.40
2023-03-06T02:13:57.598Z,12.13
2023-03-06T02:16:27.003Z,9.95
2023-03-06T02:18:53.911Z,8.75
2023-03-06T02:21:23.789Z,9.05
2023-03-06T02:23:56.921Z,12.23
2023-03-06T02:26:24.820Z,12.07
2023-03-06T02:28:51.166Z,9.63
2023-03-06T02:31:27.002Z,9.30
2023-03-06T02:34:28.522Z,9.52
2023-03-06T02:37:00.949Z,10.55
2023-03-06T02:41:54.943Z,11.05
2023-03-06T02:44:22.182Z,11.98
2023-03-06T02:46:48.585Z,9.90
2023-03-06T02:49:15.024Z,13.35
2023-03-06T02:51:41.429Z,17.23
2023-03-06T02:54:07.876Z,12.93
2023-03-06T02:56:34.242Z,15.57
2023-03-06T02:59:00.731Z,12.75
2023-03-06T03:01:27.144Z,14.90
2023-03-06T03:03:53.615Z,16.73
2023-03-06T03:06:19.990Z,14.75
2023-03-06T03:08:46.414Z,13.65
2023-03-06T03:11:12.775Z,14.35
2023-03-06T03:13:39.208Z,15.45
2023-03-06T03:16:08.646Z,14.25
2023-03-06T03:18:35.581Z,13.93
2023-03-06T03:21:02.350Z,15.95
2023-03-06T03:23:28.742Z,15.15
2023-03-06T03:25:55.160Z,16.08
2023-03-06T03:28:21.620Z,13.95
2023-03-06T03:30:48.111Z,17.92
2023-03-06T03:33:14.538Z,15.85
2023-03-06T03:35:40.954Z,16.85
2023-03-06T03:38:07.424Z,15.20
2023-03-06T03:40:33.840Z,20.00
2023-03-06T03:43:00.262Z,15.25
2023-03-06T03:45:26.727Z,16.33
2023-03-06T03:47:53.104Z,18.77
2023-03-06T03:50:19.750Z,16.48
2023-03-06T03:52:46.139Z,17.25
2023-03-06T03:55:12.536Z,18.02
2023-03-06T03:57:39.245Z,17.17
2023-03-06T04:00:07.852Z,17.85
2023-03-06T04:02:34.264Z,17.63
2023-03-06T04:05:00.724Z,18.40
2023-03-06T04:07:27.274Z,16.40
2023-03-06T04:09:53.751Z,17.17
2023-03-06T04:12:20.188Z,21.27
2023-03-06T04:14:46.558Z,17.33
2023-03-06T04:17:12.964Z,20.45
2023-03-06T04:19:39.375Z,20.70
2023-03-06T04:22:05.850Z,19.50
2023-03-06T04:24:32.217Z,17.45
2023-03-06T04:26:58.583Z,20.73
2023-03-06T04:29:25.006Z,23.15
2023-03-06T04:31:51.366Z,20.40
2023-03-06T04:34:17.775Z,21.42
2023-03-06T04:36:46.844Z,18.63
2023-03-06T04:39:13.737Z,18.98
2023-03-06T04:41:41.167Z,20.20
2023-03-06T04:44:08.053Z,23.38
2023-03-06T04:46:35.398Z,23.23
2023-03-06T04:49:01.793Z,21.83
2023-03-06T04:51:28.253Z,20.33
2023-03-06T04:53:54.673Z,22.50
2023-03-06T04:56:21.079Z,20.90
2023-03-06T04:58:47.550Z,21.35
2023-03-06T05:01:13.983Z,20.50
2023-03-06T05:03:40.603Z,21.88
2023-03-06T05:06:07.297Z,20.10
2023-03-06T05:08:33.671Z,19.92
2023-03-06T05:11:01.610Z,21.38
2023-03-06T05:13:28.747Z,20.98
2023-03-06T05:15:55.183Z,17.88
2023-03-06T05:18:21.831Z,19.88
2023-03-06T05:20:48.241Z,19.48
2023-03-06T05:23:14.694Z,22.13
2023-03-06T05:25:41.298Z,23.02
2023-03-06T05:28:07.983Z,20.73
2023-03-06T05:30:34.930Z,19.38
2023-03-06T05:33:01.447Z,23.75
2023-03-06T05:35:28.106Z,22.65
2023-03-06T05:37:54.771Z,21.58
2023-03-06T05:40:21.233Z,22.05
2023-03-06T05:42:47.828Z,22.17
2023-03-06T05:45:14.188Z,20.33
2023-03-06T05:47:41.641Z,21.45
2023-03-06T05:50:10.358Z,22.20
2023-03-06T05:52:40.073Z,22.20
2023-03-06T05:55:07.442Z,24.23
2023-03-06T05:57:34.820Z,22.65
2023-03-06T06:00:01.315Z,22.38
2023-03-06T06:02:27.793Z,23.48
2023-03-06T06:04:54.161Z,20.85
2023-03-06T06:07:20.518Z,26.83
2023-03-06T06:09:46.946Z,21.52
2023-03-06T06:12:13.807Z,20.63
2023-03-06T06:14:40.237Z,20.85
2023-03-06T06:17:06.715Z,20.52
2023-03-06T06:19:33.182Z,21.23
2023-03-06T06:22:02.397Z,19.88
2023-03-06T06:24:28.812Z,20.63
2023-03-06T06:26:57.088Z,20.00
2023-03-06T06:29:24.108Z,24.40
2023-03-06T06:31:51.194Z,26.40
2023-03-06T06:34:18.070Z,20.42
2023-03-06T06:36:44.489Z,19.25
2023-03-06T06:39:14.103Z,21.15
2023-03-06T06:41:56.984Z,21.88
2023-03-06T06:44:27.203Z,22.17
2023-03-06T06:49:40.309Z,23.35
2023-03-06T06:52:06.748Z,25.00
2023-03-06T06:54:34.202Z,21.90
2023-03-06T06:57:00.623Z,27.92
2023-03-06T06:59:27.088Z,24.35
2023-03-06T07:01:53.626Z,25.40
2023-03-06T07:04:20.248Z,24.75
2023-03-06T07:06:46.865Z,21.60
2023-03-06T07:09:13.807Z,22.58
2023-03-06T07:11:41.346Z,23.08
2023-03-06T07:14:07.870Z,22.20
2023-03-06T07:16:34.294Z,21.00
2023-03-06T07:19:00.753Z,25.17
2023-03-06T07:21:27.221Z,24.52
2023-03-06T07:23:54.296Z,23.08
2023-03-06T07:26:20.698Z,20.98
2023-03-06T07:28:52.684Z,21.17
2023-03-06T07:31:24.442Z,22.27
2023-03-06T07:33:51.590Z,17.42
2023-03-06T07:36:18.744Z,27.52
2023-03-06T07:38:45.559Z,26.52
2023-03-06T07:41:13.635Z,24.60
2023-03-06T07:43:41.131Z,24.00
2023-03-06T07:46:08.461Z,26.67
2023-03-06T07:48:35.606Z,24.73
2023-03-06T07:51:11.611Z,25.25
2023-03-06T07:53:37.977Z,21.90
2023-03-06T07:56:08.872Z,24.83
2023-03-06T07:58:36.526Z,21.10
2023-03-06T08:01:05.015Z,22.77
2023-03-06T08:03:31.706Z,21.77
2023-03-06T08:06:15.012Z,23.58
2023-03-06T08:08:43.482Z,24.55
2023-03-06T08:11:12.273Z,25.70
2023-03-06T08:13:38.935Z,24.80
2023-03-06T08:16:06.295Z,26.20
2023-03-06T08:18:33.182Z,20.15
2023-03-06T08:21:08.006Z,21.48
2023-03-06T08:23:34.949Z,22.92
2023-03-06T08:26:04.330Z,20.83
2023-03-06T08:28:30.930Z,22.55
2023-03-06T08:30:57.745Z,23.90
2023-03-06T08:33:24.906Z,24.35
2023-03-06T08:35:51.304Z,24.27
2023-03-06T08:38:17.774Z,23.25
2023-03-06T08:40:44.208Z,23.05
2023-03-06T08:43:13.986Z,22.95
2023-03-06T08:45:41.008Z,22.75
2023-03-06T08:48:07.469Z,22.13
2023-03-06T08:50:33.948Z,24.33
2023-03-06T08:53:00.320Z,25.05
2023-03-06T08:55:28.034Z,22.85
2023-03-06T08:57:54.427Z,24.58
2023-03-06T09:00:21.002Z,25.48
2023-03-06T09:02:47.634Z,22.98
2023-03-06T09:05:14.147Z,22.45
2023-03-06T09:07:40.595Z,25.10
2023-03-06T09:10:08.301Z,23.63
2023-03-06T09:12:47.356Z,22.95
2023-03-06T09:15:18.208Z,23.30
2023-03-06T09:17:44.761Z,23.17
2023-03-06T09:20:12.259Z,25.70
2023-03-06T09:22:38.739Z,22.42
2023-03-06T09:25:06.246Z,24.30
2023-03-06T09:27:33.056Z,22.48
2023-03-06T09:29:59.427Z,24.33
2023-03-06T09:32:25.960Z,22.15
2023-03-06T09:34:52.450Z,23.40
2023-03-06T09:37:18.894Z,23.13
2023-03-06T09:39:45.281Z,21.75
2023-03-06T09:42:16.513Z,24.15
2023-03-06T09:44:47.373Z,27.50
2023-03-06T09:47:32.426Z,23.60
2023-03-06T09:50:31.062Z,24.70
2023-03-06T09:53:23.042Z,26.70
2023-03-06T09:55:58.152Z,24.23
2023-03-06T09:58:26.009Z,21.67
2023-03-06T10:01:17.145Z,25.60
2023-03-06T10:03:49.763Z,22.17
2023-03-06T10:06:22.798Z,22.52
2023-03-06T10:09:02.680Z,23.83
2023-03-06T10:11:51.669Z,26.95
2023-03-06T10:14:40.472Z,23.27
2023-03-06T10:17:17.070Z,20.33
2023-03-06T10:19:43.787Z,22.25
2023-03-06T10:22:33.102Z,24.20
2023-03-06T10:25:21.276Z,24.40
2023-03-06T10:27:58.632Z,18.58
2023-03-06T10:30:39.592Z,19.58
2023-03-06T10:33:09.823Z,21.17
2023-03-06T10:35:48.315Z,18.65
2023-03-06T10:38:29.574Z,18.58
2023-03-06T10:41:08.241Z,21.45
2023-03-06T10:43:36.495Z,18.73
2023-03-06T10:46:05.010Z,20.67
2023-03-06T10:48:35.923Z,19.08
2023-03-06T10:51:22.419Z,25.95
2023-03-06T10:53:53.237Z,21.52
2023-03-06T10:56:40.783Z,21.17
2023-03-06T10:59:25.273Z,21.75
2023-03-06T11:01:54.041Z,19.13
2023-03-06T11:04:29.233Z,24.88
2023-03-06T11:07:17.739Z,18.45
2023-03-06T11:09:59.141Z,19.63
2023-03-06T11:12:37.008Z,19.48
2023-03-06T11:15:06.442Z,19.13
2023-03-06T11:17:34.756Z,21.90
2023-03-06T11:20:19.963Z,21.35
2023-03-06T11:22:56.361Z,18.65
2023-03-06T11:25:27.809Z,18.30
2023-03-06T11:28:20.406Z,19.60
2023-03-06T11:30:50.090Z,17.67
2023-03-06T11:33:29.592Z,13.07
2023-03-06T11:36:12.987Z,16.20
2023-03-06T11:38:46.230Z,15.55
2023-03-06T11:41:47.692Z,18.88
2023-03-06T11:44:35.069Z,17.35
2023-03-06T11:47:19.263Z,16.40
2023-03-06T11:49:50.928Z,13.02
2023-03-06T11:52:23.196Z,12.00
2023-03-06T11:54:55.418Z,12.98
2023-03-06T11:57:25.837Z,10.13
2023-03-06T12:00:08.096Z,12.38
2023-03-06T12:02:43.524Z,13.70
2023-03-06T12:05:12.973Z,12.60
2023-03-06T12:08:17.406Z,9.38
2023-03-06T12:10:51.974Z,8.88
2023-03-06T12:13:31.035Z,8.07
2023-03-06T12:16:24.255Z,6.18
2023-03-06T12:18:57.621Z,6.65
2023-03-06T12:21:38.718Z,4.97
2023-03-06T12:24:26.847Z,3.75
2023-03-06T12:27:14.869Z,3.83
2023-03-06T12:29:53.402Z,2.45
2023-03-06T12:32:55.400Z,3.92
2023-03-06T12:35:26.498Z,4.55
2023-03-06T12:38:34.807Z,3.00
2023-03-06T12:41:16.957Z,5.65
2023-03-06T12:44:04.826Z,2.20
2023-03-06T12:46:42.731Z,4.95
2023-03-06T12:49:17.798Z,4.47
2023-03-06T12:51:49.915Z,3.75
2023-03-06T12:54:16.878Z,4.45
2023-03-06T12:56:43.679Z,5.82
2023-03-06T12:59:47.765Z,3.45
2023-03-06T13:02:29.297Z,3.72
2023-03-06T13:05:14.026Z,3.72
2023-03-06T13:07:43.324Z,3.67
2023-03-06T13:10:31.124Z,3.38
2023-03-06T13:12:57.462Z,3.45
2023-03-06T13:15:46.314Z,4.20
2023-03-06T13:18:21.860Z,3.42
2023-03-06T13:20:55.558Z,4.55
2023-03-06T13:23:37.250Z,2.90
2023-03-06T13:26:05.458Z,3.33
2023-03-06T13:28:40.654Z,2.83
2023-03-06T13:31:18.212Z,2.97
2023-03-06T13:33:54.530Z,3.47
2023-03-06T13:36:27.149Z,3.20
2023-03-06T13:38:58.810Z,3.05
2023-03-06T13:41:31.364Z,4.83
2023-03-06T13:46:37.649Z,3.15
2023-03-06T13:49:10.569Z,2.88
2023-03-06T13:52:11.025Z,2.25
2023-03-06T13:54:58.769Z,1.73
2023-03-06T13:57:46.095Z,1.77
2023-03-06T14:00:54.864Z,1.88
2023-03-06T14:03:47.685Z,2.22
2023-03-06T14:06:35.853Z,2.47
2023-03-06T14:09:05.421Z,6.75
2023-03-06T14:11:32.350Z,4.50
2023-03-06T14:14:00.293Z,1.83
2023-03-06T14:16:32.689Z,5.13
2023-03-06T14:19:04.201Z,2.70
2023-03-06T14:21:50.818Z,2.63
2023-03-06T14:24:19.484Z,2.20
2023-03-06T14:26:48.814Z,2.50
2023-03-06T14:29:23.991Z,3.47
2023-03-06T14:31:55.333Z,2.78
2023-03-06T14:34:30.268Z,3.78
2023-03-06T14:37:00.869Z,3.88
2023-03-06T14:39:37.367Z,3.85
2023-03-06T14:42:21.889Z,3.30
2023-03-06T14:44:49.345Z,2.80
2023-03-06T14:47:28.696Z,3.28
2023-03-06T14:50:21.593Z,5.57
2023-03-06T14:55:19.722Z,5.18
2023-03-06T14:57:56.923Z,4.33
2023-03-06T15:00:24.772Z,5.47
2023-03-06T15:02:51.901Z,5.20
2023-03-06T15:05:23.026Z,3.50
2023-03-06T15:07:50.312Z,3.72
2023-03-06T15:10:25.694Z,4.55
2023-03-06T15:12:52.097Z,4.85
2023-03-06T15:15:18.633Z,3.75
2023-03-06T15:17:46.736Z,6.00
2023-03-06T15:20:37.951Z,4.72
2023-03-06T15:23:15.285Z,3.25
2023-03-06T15:25:49.660Z,6.40
2023-03-06T15:28:28.558Z,4.88
2023-03-06T15:31:33.492Z,3.95
2023-03-06T15:34:23.296Z,4.57
2023-03-06T15:36:54.809Z,5.93
2023-03-06T15:39:33.835Z,4.95
2023-03-06T15:42:04.400Z,3.53
2023-03-06T15:44:32.495Z,3.30
2023-03-06T15:47:08.436Z,4.10
2023-03-06T15:49:37.694Z,4.32
2023-03-06T15:52:04.936Z,4.22
2023-03-06T15:54:32.928Z,4.07
2023-03-06T15:56:59.625Z,4.15
2023-03-06T15:59:31.169Z,4.50
2023-03-06T16:02:00.591Z,4.38
2023-03-06T16:04:27.073Z,3.22
2023-03-06T16:06:53.522Z,3.95
2023-03-06T16:09:19.883Z,3.70
2023-03-06T16:11:47.214Z,4.28
2023-03-06T16:14:23.868Z,4.88
2023-03-06T16:16:51.984Z,5.53
2023-03-06T16:19:28.106Z,3.75
2023-03-06T16:21:55.825Z,4.78
2023-03-06T16:24:22.319Z,3.05
2023-03-06T16:26:53.545Z,5.10
2023-03-06T16:29:25.025Z,2.80
2023-03-06T16:31:51.660Z,3.17
2023-03-06T16:34:21.306Z,3.05
2023-03-06T16:36:48.470Z,2.45
2023-03-06T16:39:16.351Z,3.10
2023-03-06T16:41:42.792Z,2.22
2023-03-06T16:44:10.082Z,3.28
2023-03-06T16:46:39.867Z,3.42
2023-03-06T16:49:06.539Z,2.40
2023-03-06T16:51:33.575Z,2.88
2023-03-06T16:53:59.939Z,2.92
2023-03-06T16:56:26.342Z,2.20
2023-03-06T16:58:52.722Z,2.65
2023-03-06T17:01:19.834Z,4.97
2023-03-06T17:03:46.785Z,2.03
2023-03-06T17:06:15.370Z,2.33
2023-03-06T17:08:41.814Z,2.35
2023-03-06T17:11:08.231Z,3.42
2023-03-06T17:13:34.871Z,3.50
2023-03-06T17:16:02.060Z,5.43
2023-03-06T17:18:29.056Z,3.17
2023-03-06T17:20:55.738Z,3.20
2023-03-06T17:23:26.594Z,5.93
2023-03-06T17:26:07.078Z,3.15
2023-03-06T17:28:34.944Z,4.47
2023-03-06T17:31:02.868Z,4.13
2023-03-06T17:33:29.565Z,4.30
2023-03-06T17:36:00.357Z,4.60
2023-03-06T17:38:27.352Z,4.70
2023-03-06T17:40:53.750Z,5.70
2023-03-06T17:43:20.676Z,4.80
2023-03-06T17:45:49.969Z,5.88
2023-03-06T17:48:16.391Z,6.45
2023-03-06T17:50:43.422Z,5.57
2023-03-06T17:53:09.792Z,5.68
2023-03-06T17:55:38.432Z,5.18
2023-03-06T17:58:04.800Z,4.95
2023-03-06T18:00:31.170Z,5.03
2023-03-06T18:02:57.528Z,5.85
2023-03-06T18:05:23.870Z,7.65
2023-03-06T18:07:50.299Z,6.45
2023-03-06T18:10:16.898Z,5.47
2023-03-06T18:12:43.292Z,6.22
2023-03-06T18:15:09.857Z,7.03
2023-03-06T18:17:36.315Z,6.07
2023-03-06T18:20:02.796Z,6.18
2023-03-06T18:22:29.198Z,7.90
2023-03-06T18:24:55.728Z,6.20
2023-03-06T18:27:22.475Z,8.65
2023-03-06T18:29:48.899Z,6.85
2023-03-06T18:32:15.331Z,7.13
2023-03-06T18:34:41.713Z,6.88
2023-03-06T18:37:08.089Z,8.32
2023-03-06T18:39:34.464Z,7.53
2023-03-06T18:42:00.857Z,7.40
2023-03-06T18:44:27.279Z,8.68
2023-03-06T18:46:53.655Z,7.70
2023-03-06T18:49:20.056Z,8.48
2023-03-06T18:51:48.093Z,9.45
2023-03-06T18:54:14.447Z,8.63
2023-03-06T18:56:44.023Z,10.55
2023-03-06T18:59:14.439Z,10.77
2023-03-06T19:01:43.593Z,9.77
2023-03-06T19:04:10.038Z,10.38
2023-03-06T19:06:40.237Z,9.73
2023-03-06T19:09:07.179Z,9.85
2023-03-06T19:11:33.955Z,10.23
2023-03-06T19:14:00.815Z,10.27
2023-03-06T19:16:29.001Z,10.60
2023-03-06T19:18:56.199Z,10.93
2023-03-06T19:21:24.360Z,9.95
2023-03-06T19:23:50.746Z,10.48
2023-03-06T19:26:20.435Z,11.90
2023-03-06T19:28:47.627Z,12.00
2023-03-06T19:31:19.602Z,14.88
2023-03-06T19:33:47.132Z,13.02
2023-03-06T19:36:14.629Z,12.20
2023-03-06T19:38:41.739Z,15.05
2023-03-06T19:41:13.287Z,11.90
2023-03-06T19:43:41.072Z,11.73
2023-03-06T19:46:13.975Z,15.27
2023-03-06T19:48:41.573Z,12.57
2023-03-06T19:51:08.047Z,14.73
2023-03-06T19:53:38.681Z,15.27
2023-03-06T19:56:07.251Z,16.25
2023-03-06T19:58:33.700Z,16.88
2023-03-06T20:01:08.684Z,18.52
2023-03-06T20:03:35.214Z,23.45
2023-03-06T20:06:02.785Z,28.17
2023-03-06T20:08:29.193Z,30.98
2023-03-06T20:10:55.619Z,32.35
2023-03-06T20:13:22.019Z,31.48
2023-03-06T20:15:48.458Z,29.33
2023-03-06T20:18:15.059Z,33.03
2023-03-06T20:20:41.438Z,34.22
2023-03-06T20:23:07.865Z,33.33
2023-03-06T20:25:37.369Z,35.58
2023-03-06T20:28:04.216Z,36.47
2023-03-06T20:30:37.814Z,34.90
2023-03-06T20:33:05.235Z,36.67
2023-03-06T20:35:31.633Z,36.67
2023-03-06T20:37:58.073Z,42.67
2023-03-06T20:40:24.602Z,39.22
2023-03-06T20:42:51.174Z,43.63
2023-03-06T20:45:17.672Z,40.30
2023-03-06T20:47:47.093Z,38.85
2023-03-06T20:50:15.141Z,41.13
2023-03-06T20:52:41.562Z,43.25
2023-03-06T20:55:08.310Z,42.33
2023-03-06T20:57:34.738Z,41.97
2023-03-06T21:00:01.128Z,44.05
2023-03-06T21:02:27.553Z,44.95
2023-03-06T21:04:53.958Z,45.17
2023-03-06T21:07:20.541Z,45.88
2023-03-06T21:09:47.606Z,46.97
2023-03-06T21:12:14.273Z,43.88
2023-03-06T21:14:40.712Z,46.00
2023-03-06T21:17:07.126Z,46.05
2023-03-06T21:19:33.561Z,47.83
2023-03-06T21:21:59.987Z,47.72
2023-03-06T21:24:26.382Z,46.55
2023-03-06T21:26:52.799Z,47.15
2023-03-06T21:29:19.183Z,44.20
2023-03-06T21:31:45.746Z,44.50
2023-03-06T21:34:12.281Z,48.53
2023-03-06T21:36:38.691Z,46.88
2023-03-06T21:39:08.290Z,51.88
2023-03-06T21:41:34.811Z,47.92
2023-03-06T21:44:03.351Z,46.90
2023-03-06T21:46:30.407Z,51.75
2023-03-06T21:48:56.963Z,51.38
2023-03-06T21:51:24.015Z,52.70
2023-03-06T21:53:51.207Z,51.30
2023-03-06T21:56:18.826Z,52.63
2023-03-06T21:58:45.767Z,53.08
2023-03-06T22:01:14.429Z,54.08
2023-03-06T22:03:40.965Z,51.80
2023-03-06T22:06:11.879Z,50.45
2023-03-06T22:08:38.585Z,53.53
2023-03-06T22:11:10.646Z,51.40
2023-03-06T22:13:37.640Z,54.67
2023-03-06T22:16:04.364Z,52.95
2023-03-06T22:18:30.935Z,50.50
2023-03-06T22:20:57.484Z,50.10
2023-03-06T22:23:23.951Z,53.20
2023-03-06T22:25:50.322Z,49.80
2023-03-06T22:28:18.700Z,49.97
2023-03-06T22:30:45.892Z,53.08
2023-03-06T22:33:12.354Z,49.83
2023-03-06T22:35:38.914Z,50.80
2023-03-06T22:38:05.364Z,48.63
2023-03-06T22:40:32.778Z,49.20
2023-03-06T22:42:59.151Z,47.38
2023-03-06T22:45:25.534Z,44.90
2023-03-06T22:47:55.195Z,49.65
2023-03-06T22:50:23.780Z,47.03
2023-03-06T22:52:50.208Z,42.28
2023-03-06T22:55:16.887Z,43.80
2023-03-06T22:57:43.989Z,40.80
2023-03-06T23:00:11.222Z,40.22
2023-03-06T23:02:38.546Z,43.38
2023-03-06T23:05:05.009Z,39.38
2023-03-06T23:07:31.408Z,42.28
2023-03-06T23:09:57.785Z,38.40
2023-03-06T23:12:24.160Z,34.90
2023-03-06T23:14:51.176Z,38.47
2023-03-06T23:17:17.694Z,38.40
2023-03-06T23:19:44.241Z,37.00
2023-03-06T23:22:10.674Z,37.13
2023-03-06T23:24:37.108Z,35.63
2023-03-06T23:27:03.600Z,36.05
2023-03-06T23:29:30.189Z,37.42
2023-03-06T23:31:56.554Z,38.75
2023-03-06T23:34:23.449Z,35.75
2023-03-06T23:36:49.817Z,35.53
2023-03-06T23:39:16.676Z,37.30
2023-03-06T23:41:43.044Z,37.22
2023-03-06T23:44:09.444Z,34.03
2023-03-06T23:46:35.895Z,33.53
2023-03-06T23:49:02.829Z,35.33
2023-03-06T23:51:29.306Z,36.47
2023-03-06T23:53:58.148Z,39.55
2023-03-06T23:56:26.487Z,35.58
2023-03-06T23:58:53.233Z,37.17
